sensor_id;sensor_type;location;lat;lon;timestamp;P1;durP1;ratioP1;P2;durP2;ratioP2
59418;SDS011;45224;50.904;6.038;2023-12-20T00:01:22;17.55;;;8.40;;
59418;SDS011;45224;50.904;6.038;2023-12-20T00:02:52;15.27;;;8.65;;
59418;SDS011;45224;50.904;6.038;2023-12-20T00:04:23;18.48;;;9.30;;
59418;SDS011;45224;50.904;6.038;2023-12-20T00:05:53;16.92;;;8.70;;
59418;SDS011;45224;50.904;6.038;2023-12-20T00:07:24;15.20;;;8.85;;
59418;SDS011;45224;50.904;6.038;2023-12-20T00:08:54;17.08;;;9.20;;
59418;SDS011;45224;50.904;6.038;2023-12-20T00:10:25;15.88;;;8.25;;
59418;SDS011;45224;50.904;6.038;2023-12-20T00:11:55;17.17;;;8.93;;
59418;SDS011;45224;50.904;6.038;2023-12-20T00:13:26;17.40;;;8.80;;
59418;SDS011;45224;50.904;6.038;2023-12-20T00:14:56;16.15;;;8.20;;
59418;SDS011;45224;50.904;6.038;2023-12-20T00:16:27;18.42;;;9.15;;
59418;SDS011;45224;50.904;6.038;2023-12-20T00:17:57;14.25;;;8.02;;
59418;SDS011;45224;50.904;6.038;2023-12-20T00:19:27;17.50;;;8.70;;
59418;SDS011;45224;50.904;6.038;2023-12-20T00:20:58;16.70;;;8.63;;
59418;SDS011;45224;50.904;6.038;2023-12-20T00:22:28;15.80;;;8.35;;
59418;SDS011;45224;50.904;6.038;2023-12-20T00:23:59;17.30;;;8.43;;
59418;SDS011;45224;50.904;6.038;2023-12-20T00:25:30;13.13;;;7.47;;
59418;SDS011;45224;50.904;6.038;2023-12-20T00:27:00;15.63;;;8.00;;
59418;SDS011;45224;50.904;6.038;2023-12-20T00:28:30;15.32;;;7.55;;
59418;SDS011;45224;50.904;6.038;2023-12-20T00:30:01;15.15;;;7.53;;
59418;SDS011;45224;50.904;6.038;2023-12-20T00:31:31;13.98;;;6.75;;
59418;SDS011;45224;50.904;6.038;2023-12-20T00:33:02;16.25;;;7.22;;
59418;SDS011;45224;50.904;6.038;2023-12-20T00:34:32;14.52;;;6.20;;
59418;SDS011;45224;50.904;6.038;2023-12-20T00:36:03;12.13;;;5.93;;
59418;SDS011;45224;50.904;6.038;2023-12-20T00:37:34;9.32;;;5.13;;
59418;SDS011;45224;50.904;6.038;2023-12-20T00:39:04;11.80;;;4.53;;
59418;SDS011;45224;50.904;6.038;2023-12-20T00:40:35;11.98;;;4.53;;
59418;SDS011;45224;50.904;6.038;2023-12-20T00:42:05;10.40;;;4.35;;
59418;SDS011;45224;50.904;6.038;2023-12-20T00:43:36;7.32;;;3.90;;
59418;SDS011;45224;50.904;6.038;2023-12-20T00:45:06;7.47;;;3.55;;
59418;SDS011;45224;50.904;6.038;2023-12-20T00:46:37;8.93;;;2.95;;
59418;SDS011;45224;50.904;6.038;2023-12-20T00:48:07;7.53;;;2.47;;
59418;SDS011;45224;50.904;6.038;2023-12-20T00:49:38;8.23;;;3.45;;
59418;SDS011;45224;50.904;6.038;2023-12-20T00:51:08;8.88;;;2.97;;
59418;SDS011;45224;50.904;6.038;2023-12-20T00:52:39;7.05;;;2.90;;
59418;SDS011;45224;50.904;6.038;2023-12-20T00:54:09;7.65;;;2.42;;
59418;SDS011;45224;50.904;6.038;2023-12-20T00:55:40;5.68;;;2.30;;
59418;SDS011;45224;50.904;6.038;2023-12-20T00:57:10;6.93;;;1.90;;
59418;SDS011;45224;50.904;6.038;2023-12-20T00:58:41;4.35;;;2.05;;
59418;SDS011;45224;50.904;6.038;2023-12-20T01:00:11;7.47;;;1.95;;
59418;SDS011;45224;50.904;6.038;2023-12-20T01:01:43;9.35;;;1.85;;
59418;SDS011;45224;50.904;6.038;2023-12-20T01:03:13;7.68;;;1.45;;
59418;SDS011;45224;50.904;6.038;2023-12-20T01:04:45;8.32;;;1.63;;
59418;SDS011;45224;50.904;6.038;2023-12-20T01:06:15;6.30;;;1.50;;
59418;SDS011;45224;50.904;6.038;2023-12-20T01:07:46;7.47;;;1.10;;
59418;SDS011;45224;50.904;6.038;2023-12-20T01:09:16;4.97;;;1.40;;
59418;SDS011;45224;50.904;6.038;2023-12-20T01:10:47;3.28;;;1.00;;
59418;SDS011;45224;50.904;6.038;2023-12-20T01:12:17;9.25;;;1.20;;
59418;SDS011;45224;50.904;6.038;2023-12-20T01:13:47;5.30;;;1.17;;
59418;SDS011;45224;50.904;6.038;2023-12-20T01:15:18;4.35;;;1.05;;
59418;SDS011;45224;50.904;6.038;2023-12-20T01:16:48;5.53;;;1.00;;
59418;SDS011;45224;50.904;6.038;2023-12-20T01:18:19;9.90;;;1.30;;
59418;SDS011;45224;50.904;6.038;2023-12-20T01:19:49;6.28;;;1.15;;
59418;SDS011;45224;50.904;6.038;2023-12-20T01:21:20;6.03;;;0.98;;
59418;SDS011;45224;50.904;6.038;2023-12-20T01:22:50;6.22;;;1.10;;
59418;SDS011;45224;50.904;6.038;2023-12-20T01:24:20;10.90;;;1.70;;
59418;SDS011;45224;50.904;6.038;2023-12-20T01:25:51;3.75;;;1.00;;
59418;SDS011;45224;50.904;6.038;2023-12-20T01:27:22;9.25;;;1.20;;
59418;SDS011;45224;50.904;6.038;2023-12-20T01:28:52;9.27;;;1.15;;
59418;SDS011;45224;50.904;6.038;2023-12-20T01:30:23;3.60;;;0.82;;
59418;SDS011;45224;50.904;6.038;2023-12-20T01:31:54;6.00;;;1.45;;
59418;SDS011;45224;50.904;6.038;2023-12-20T01:33:24;5.40;;;1.15;;
59418;SDS011;45224;50.904;6.038;2023-12-20T01:34:55;5.07;;;1.10;;
59418;SDS011;45224;50.904;6.038;2023-12-20T01:36:25;9.48;;;1.70;;
59418;SDS011;45224;50.904;6.038;2023-12-20T01:37:56;8.15;;;1.20;;
59418;SDS011;45224;50.904;6.038;2023-12-20T01:39:26;7.97;;;1.70;;
59418;SDS011;45224;50.904;6.038;2023-12-20T01:40:57;10.18;;;1.33;;
59418;SDS011;45224;50.904;6.038;2023-12-20T01:42:28;11.02;;;1.80;;
59418;SDS011;45224;50.904;6.038;2023-12-20T01:43:59;4.82;;;1.27;;
59418;SDS011;45224;50.904;6.038;2023-12-20T01:45:30;7.03;;;1.55;;
59418;SDS011;45224;50.904;6.038;2023-12-20T01:47:00;9.73;;;2.25;;
59418;SDS011;45224;50.904;6.038;2023-12-20T01:48:31;5.63;;;1.70;;
59418;SDS011;45224;50.904;6.038;2023-12-20T01:50:02;9.77;;;1.58;;
59418;SDS011;45224;50.904;6.038;2023-12-20T01:51:33;7.68;;;1.70;;
59418;SDS011;45224;50.904;6.038;2023-12-20T01:53:05;6.05;;;1.73;;
59418;SDS011;45224;50.904;6.038;2023-12-20T01:54:38;7.63;;;1.90;;
59418;SDS011;45224;50.904;6.038;2023-12-20T01:56:09;6.10;;;1.85;;
59418;SDS011;45224;50.904;6.038;2023-12-20T01:57:43;6.45;;;1.92;;
59418;SDS011;45224;50.904;6.038;2023-12-20T01:59:14;8.57;;;1.60;;
59418;SDS011;45224;50.904;6.038;2023-12-20T02:00:45;5.30;;;1.23;;
59418;SDS011;45224;50.904;6.038;2023-12-20T02:02:16;5.25;;;1.83;;
59418;SDS011;45224;50.904;6.038;2023-12-20T02:03:47;9.07;;;1.90;;
59418;SDS011;45224;50.904;6.038;2023-12-20T02:05:18;5.70;;;1.50;;
59418;SDS011;45224;50.904;6.038;2023-12-20T02:06:48;13.07;;;1.77;;
59418;SDS011;45224;50.904;6.038;2023-12-20T02:08:22;6.50;;;1.50;;
59418;SDS011;45224;50.904;6.038;2023-12-20T02:09:53;5.63;;;1.65;;
59418;SDS011;45224;50.904;6.038;2023-12-20T02:11:23;7.50;;;1.63;;
59418;SDS011;45224;50.904;6.038;2023-12-20T02:12:55;3.92;;;1.45;;
59418;SDS011;45224;50.904;6.038;2023-12-20T02:14:25;9.60;;;1.90;;
59418;SDS011;45224;50.904;6.038;2023-12-20T02:15:56;9.70;;;1.58;;
59418;SDS011;45224;50.904;6.038;2023-12-20T02:17:27;4.95;;;1.52;;
59418;SDS011;45224;50.904;6.038;2023-12-20T02:18:58;7.45;;;1.65;;
59418;SDS011;45224;50.904;6.038;2023-12-20T02:20:28;12.30;;;1.83;;
59418;SDS011;45224;50.904;6.038;2023-12-20T02:23:41;10.00;;;1.50;;
59418;SDS011;45224;50.904;6.038;2023-12-20T02:25:12;5.00;;;1.50;;
59418;SDS011;45224;50.904;6.038;2023-12-20T02:26:42;6.22;;;1.65;;
59418;SDS011;45224;50.904;6.038;2023-12-20T02:28:13;11.10;;;1.75;;
59418;SDS011;45224;50.904;6.038;2023-12-20T02:29:44;4.35;;;1.48;;
59418;SDS011;45224;50.904;6.038;2023-12-20T02:31:17;9.32;;;2.03;;
59418;SDS011;45224;50.904;6.038;2023-12-20T02:32:52;6.53;;;1.33;;
59418;SDS011;45224;50.904;6.038;2023-12-20T02:34:23;9.57;;;1.60;;
59418;SDS011;45224;50.904;6.038;2023-12-20T02:35:54;6.82;;;1.90;;
59418;SDS011;45224;50.904;6.038;2023-12-20T02:37:24;12.00;;;2.00;;
59418;SDS011;45224;50.904;6.038;2023-12-20T02:38:54;8.35;;;1.73;;
59418;SDS011;45224;50.904;6.038;2023-12-20T02:40:25;7.63;;;1.73;;
59418;SDS011;45224;50.904;6.038;2023-12-20T02:41:55;7.25;;;2.03;;
59418;SDS011;45224;50.904;6.038;2023-12-20T02:43:26;9.32;;;1.92;;
59418;SDS011;45224;50.904;6.038;2023-12-20T02:44:56;10.95;;;1.80;;
59418;SDS011;45224;50.904;6.038;2023-12-20T02:46:27;10.70;;;1.95;;
59418;SDS011;45224;50.904;6.038;2023-12-20T02:47:57;6.13;;;1.60;;
59418;SDS011;45224;50.904;6.038;2023-12-20T02:49:27;14.00;;;2.67;;
59418;SDS011;45224;50.904;6.038;2023-12-20T02:50:58;8.00;;;1.77;;
59418;SDS011;45224;50.904;6.038;2023-12-20T02:52:29;11.75;;;2.60;;
59418;SDS011;45224;50.904;6.038;2023-12-20T02:53:59;10.23;;;2.08;;
59418;SDS011;45224;50.904;6.038;2023-12-20T02:55:30;9.75;;;1.70;;
59418;SDS011;45224;50.904;6.038;2023-12-20T02:57:00;11.85;;;2.10;;
59418;SDS011;45224;50.904;6.038;2023-12-20T02:58:31;12.65;;;2.58;;
59418;SDS011;45224;50.904;6.038;2023-12-20T03:00:01;8.07;;;1.80;;
59418;SDS011;45224;50.904;6.038;2023-12-20T03:01:32;5.72;;;1.70;;
59418;SDS011;45224;50.904;6.038;2023-12-20T03:03:02;7.90;;;2.00;;
59418;SDS011;45224;50.904;6.038;2023-12-20T03:04:33;8.52;;;1.85;;
59418;SDS011;45224;50.904;6.038;2023-12-20T03:06:03;5.90;;;1.92;;
59418;SDS011;45224;50.904;6.038;2023-12-20T03:07:34;8.88;;;1.98;;
59418;SDS011;45224;50.904;6.038;2023-12-20T03:09:07;9.10;;;2.10;;
59418;SDS011;45224;50.904;6.038;2023-12-20T03:10:38;10.68;;;2.33;;
59418;SDS011;45224;50.904;6.038;2023-12-20T03:12:08;9.43;;;2.22;;
59418;SDS011;45224;50.904;6.038;2023-12-20T03:13:38;12.73;;;2.22;;
59418;SDS011;45224;50.904;6.038;2023-12-20T03:15:09;11.75;;;2.35;;
59418;SDS011;45224;50.904;6.038;2023-12-20T03:16:40;9.98;;;2.22;;
59418;SDS011;45224;50.904;6.038;2023-12-20T03:18:10;13.07;;;2.38;;
59418;SDS011;45224;50.904;6.038;2023-12-20T03:19:41;9.30;;;2.50;;
59418;SDS011;45224;50.904;6.038;2023-12-20T03:21:11;6.75;;;2.65;;
59418;SDS011;45224;50.904;6.038;2023-12-20T03:22:42;8.45;;;2.33;;
59418;SDS011;45224;50.904;6.038;2023-12-20T03:24:12;7.57;;;2.22;;
59418;SDS011;45224;50.904;6.038;2023-12-20T03:25:43;9.20;;;2.10;;
59418;SDS011;45224;50.904;6.038;2023-12-20T03:27:13;9.93;;;1.90;;
59418;SDS011;45224;50.904;6.038;2023-12-20T03:28:43;7.15;;;2.30;;
59418;SDS011;45224;50.904;6.038;2023-12-20T03:30:14;9.65;;;2.25;;
59418;SDS011;45224;50.904;6.038;2023-12-20T03:31:44;9.77;;;2.00;;
59418;SDS011;45224;50.904;6.038;2023-12-20T03:33:15;8.05;;;2.28;;
59418;SDS011;45224;50.904;6.038;2023-12-20T03:34:46;7.50;;;2.20;;
59418;SDS011;45224;50.904;6.038;2023-12-20T03:36:16;10.57;;;2.25;;
59418;SDS011;45224;50.904;6.038;2023-12-20T03:37:47;9.98;;;2.30;;
59418;SDS011;45224;50.904;6.038;2023-12-20T03:39:17;11.07;;;2.03;;
59418;SDS011;45224;50.904;6.038;2023-12-20T03:40:47;11.52;;;2.30;;
59418;SDS011;45224;50.904;6.038;2023-12-20T03:42:18;8.60;;;2.10;;
59418;SDS011;45224;50.904;6.038;2023-12-20T03:43:48;12.30;;;2.58;;
59418;SDS011;45224;50.904;6.038;2023-12-20T03:45:19;11.05;;;2.20;;
59418;SDS011;45224;50.904;6.038;2023-12-20T03:46:49;9.77;;;2.38;;
59418;SDS011;45224;50.904;6.038;2023-12-20T03:48:19;14.73;;;2.70;;
59418;SDS011;45224;50.904;6.038;2023-12-20T03:49:50;8.38;;;2.25;;
59418;SDS011;45224;50.904;6.038;2023-12-20T03:51:20;9.02;;;2.08;;
59418;SDS011;45224;50.904;6.038;2023-12-20T03:52:51;7.32;;;2.00;;
59418;SDS011;45224;50.904;6.038;2023-12-20T03:54:22;13.30;;;2.33;;
59418;SDS011;45224;50.904;6.038;2023-12-20T03:55:52;11.00;;;2.20;;
59418;SDS011;45224;50.904;6.038;2023-12-20T03:57:23;12.85;;;2.67;;
59418;SDS011;45224;50.904;6.038;2023-12-20T03:58:53;10.27;;;2.40;;
59418;SDS011;45224;50.904;6.038;2023-12-20T04:00:24;8.75;;;2.25;;
59418;SDS011;45224;50.904;6.038;2023-12-20T04:01:54;7.38;;;2.13;;
59418;SDS011;45224;50.904;6.038;2023-12-20T04:03:24;10.43;;;1.98;;
59418;SDS011;45224;50.904;6.038;2023-12-20T04:04:55;11.73;;;2.50;;
59418;SDS011;45224;50.904;6.038;2023-12-20T04:06:25;7.72;;;2.33;;
59418;SDS011;45224;50.904;6.038;2023-12-20T04:07:56;12.48;;;2.47;;
59418;SDS011;45224;50.904;6.038;2023-12-20T04:09:26;8.02;;;2.20;;
59418;SDS011;45224;50.904;6.038;2023-12-20T04:10:57;7.30;;;2.17;;
59418;SDS011;45224;50.904;6.038;2023-12-20T04:12:28;8.40;;;2.40;;
59418;SDS011;45224;50.904;6.038;2023-12-20T04:13:58;10.25;;;2.13;;
59418;SDS011;45224;50.904;6.038;2023-12-20T04:15:29;8.15;;;2.10;;
59418;SDS011;45224;50.904;6.038;2023-12-20T04:16:59;7.15;;;1.75;;
59418;SDS011;45224;50.904;6.038;2023-12-20T04:18:29;7.10;;;2.30;;
59418;SDS011;45224;50.904;6.038;2023-12-20T04:20:02;11.05;;;2.28;;
59418;SDS011;45224;50.904;6.038;2023-12-20T04:21:32;10.23;;;1.90;;
59418;SDS011;45224;50.904;6.038;2023-12-20T04:23:03;6.72;;;2.13;;
59418;SDS011;45224;50.904;6.038;2023-12-20T04:24:33;8.43;;;1.75;;
59418;SDS011;45224;50.904;6.038;2023-12-20T04:26:04;7.40;;;1.60;;
59418;SDS011;45224;50.904;6.038;2023-12-20T04:27:34;8.25;;;1.95;;
59418;SDS011;45224;50.904;6.038;2023-12-20T04:29:05;7.43;;;2.35;;
59418;SDS011;45224;50.904;6.038;2023-12-20T04:30:35;8.82;;;2.50;;
59418;SDS011;45224;50.904;6.038;2023-12-20T04:32:06;8.27;;;2.28;;
59418;SDS011;45224;50.904;6.038;2023-12-20T04:33:36;8.90;;;2.08;;
59418;SDS011;45224;50.904;6.038;2023-12-20T04:35:06;6.93;;;1.50;;
59418;SDS011;45224;50.904;6.038;2023-12-20T04:36:38;10.77;;;2.33;;
59418;SDS011;45224;50.904;6.038;2023-12-20T04:38:09;9.18;;;2.15;;
59418;SDS011;45224;50.904;6.038;2023-12-20T04:39:39;11.18;;;1.90;;
59418;SDS011;45224;50.904;6.038;2023-12-20T04:41:11;13.57;;;2.13;;
59418;SDS011;45224;50.904;6.038;2023-12-20T04:42:45;6.50;;;2.33;;
59418;SDS011;45224;50.904;6.038;2023-12-20T04:44:16;12.00;;;1.92;;
59418;SDS011;45224;50.904;6.038;2023-12-20T04:45:46;16.77;;;2.58;;
59418;SDS011;45224;50.904;6.038;2023-12-20T04:47:17;6.28;;;1.52;;
59418;SDS011;45224;50.904;6.038;2023-12-20T04:48:47;6.60;;;1.80;;
59418;SDS011;45224;50.904;6.038;2023-12-20T04:50:17;6.15;;;2.45;;
59418;SDS011;45224;50.904;6.038;2023-12-20T04:51:49;8.82;;;2.13;;
59418;SDS011;45224;50.904;6.038;2023-12-20T04:53:20;10.73;;;2.20;;
59418;SDS011;45224;50.904;6.038;2023-12-20T04:54:50;6.95;;;2.58;;
59418;SDS011;45224;50.904;6.038;2023-12-20T04:56:21;9.80;;;2.38;;
59418;SDS011;45224;50.904;6.038;2023-12-20T04:57:51;11.55;;;2.17;;
59418;SDS011;45224;50.904;6.038;2023-12-20T04:59:22;9.88;;;2.53;;
59418;SDS011;45224;50.904;6.038;2023-12-20T05:00:52;11.57;;;2.33;;
59418;SDS011;45224;50.904;6.038;2023-12-20T05:02:23;7.32;;;2.08;;
59418;SDS011;45224;50.904;6.038;2023-12-20T05:03:53;9.98;;;2.20;;
59418;SDS011;45224;50.904;6.038;2023-12-20T05:05:24;8.90;;;1.98;;
59418;SDS011;45224;50.904;6.038;2023-12-20T05:06:54;12.25;;;2.22;;
59418;SDS011;45224;50.904;6.038;2023-12-20T05:08:25;7.70;;;1.90;;
59418;SDS011;45224;50.904;6.038;2023-12-20T05:09:55;7.43;;;1.85;;
59418;SDS011;45224;50.904;6.038;2023-12-20T05:11:25;9.38;;;1.83;;
59418;SDS011;45224;50.904;6.038;2023-12-20T05:12:56;8.90;;;1.83;;
59418;SDS011;45224;50.904;6.038;2023-12-20T05:14:26;7.00;;;1.63;;
59418;SDS011;45224;50.904;6.038;2023-12-20T05:15:57;9.25;;;1.70;;
59418;SDS011;45224;50.904;6.038;2023-12-20T05:17:27;10.02;;;2.40;;
59418;SDS011;45224;50.904;6.038;2023-12-20T05:18:58;10.98;;;1.95;;
59418;SDS011;45224;50.904;6.038;2023-12-20T05:20:30;7.40;;;1.90;;
59418;SDS011;45224;50.904;6.038;2023-12-20T05:22:01;9.93;;;2.03;;
59418;SDS011;45224;50.904;6.038;2023-12-20T05:23:32;8.63;;;1.75;;
59418;SDS011;45224;50.904;6.038;2023-12-20T05:25:03;8.02;;;2.63;;
59418;SDS011;45224;50.904;6.038;2023-12-20T05:26:34;8.10;;;1.67;;
59418;SDS011;45224;50.904;6.038;2023-12-20T05:28:05;8.48;;;2.30;;
59418;SDS011;45224;50.904;6.038;2023-12-20T05:29:35;8.55;;;1.92;;
59418;SDS011;45224;50.904;6.038;2023-12-20T05:31:06;6.80;;;1.85;;
59418;SDS011;45224;50.904;6.038;2023-12-20T05:32:37;7.53;;;1.83;;
59418;SDS011;45224;50.904;6.038;2023-12-20T05:34:07;6.97;;;1.95;;
59418;SDS011;45224;50.904;6.038;2023-12-20T05:35:39;10.10;;;2.67;;
59418;SDS011;45224;50.904;6.038;2023-12-20T05:37:09;5.10;;;1.85;;
59418;SDS011;45224;50.904;6.038;2023-12-20T05:38:40;9.75;;;2.45;;
59418;SDS011;45224;50.904;6.038;2023-12-20T05:40:10;12.95;;;2.45;;
59418;SDS011;45224;50.904;6.038;2023-12-20T05:41:41;10.95;;;1.90;;
59418;SDS011;45224;50.904;6.038;2023-12-20T05:43:12;10.75;;;1.70;;
59418;SDS011;45224;50.904;6.038;2023-12-20T05:44:42;10.77;;;2.15;;
59418;SDS011;45224;50.904;6.038;2023-12-20T05:46:12;10.52;;;2.00;;
59418;SDS011;45224;50.904;6.038;2023-12-20T05:47:43;6.97;;;2.20;;
59418;SDS011;45224;50.904;6.038;2023-12-20T05:49:13;13.27;;;2.40;;
59418;SDS011;45224;50.904;6.038;2023-12-20T05:50:44;9.32;;;2.55;;
59418;SDS011;45224;50.904;6.038;2023-12-20T05:52:14;12.63;;;2.15;;
59418;SDS011;45224;50.904;6.038;2023-12-20T05:53:45;10.93;;;1.80;;
59418;SDS011;45224;50.904;6.038;2023-12-20T05:55:15;8.95;;;2.58;;
59418;SDS011;45224;50.904;6.038;2023-12-20T05:56:45;10.23;;;2.17;;
59418;SDS011;45224;50.904;6.038;2023-12-20T05:58:16;11.43;;;2.38;;
59418;SDS011;45224;50.904;6.038;2023-12-20T05:59:46;9.93;;;2.17;;
59418;SDS011;45224;50.904;6.038;2023-12-20T06:01:17;11.73;;;2.65;;
59418;SDS011;45224;50.904;6.038;2023-12-20T06:02:47;8.60;;;2.08;;
59418;SDS011;45224;50.904;6.038;2023-12-20T06:04:18;12.00;;;2.42;;
59418;SDS011;45224;50.904;6.038;2023-12-20T06:05:48;9.13;;;2.15;;
59418;SDS011;45224;50.904;6.038;2023-12-20T06:07:18;13.43;;;2.63;;
59418;SDS011;45224;50.904;6.038;2023-12-20T06:08:49;10.35;;;2.42;;
59418;SDS011;45224;50.904;6.038;2023-12-20T06:10:19;7.55;;;2.42;;
59418;SDS011;45224;50.904;6.038;2023-12-20T06:11:50;9.93;;;2.20;;
59418;SDS011;45224;50.904;6.038;2023-12-20T06:13:21;13.13;;;2.40;;
59418;SDS011;45224;50.904;6.038;2023-12-20T06:14:51;8.93;;;2.05;;
59418;SDS011;45224;50.904;6.038;2023-12-20T06:16:22;14.85;;;2.40;;
59418;SDS011;45224;50.904;6.038;2023-12-20T06:17:52;8.98;;;2.85;;
59418;SDS011;45224;50.904;6.038;2023-12-20T06:19:22;12.43;;;2.92;;
59418;SDS011;45224;50.904;6.038;2023-12-20T06:20:53;13.82;;;2.42;;
59418;SDS011;45224;50.904;6.038;2023-12-20T06:22:24;9.82;;;1.95;;
59418;SDS011;45224;50.904;6.038;2023-12-20T06:23:55;8.82;;;2.50;;
59418;SDS011;45224;50.904;6.038;2023-12-20T06:25:25;10.00;;;2.40;;
59418;SDS011;45224;50.904;6.038;2023-12-20T06:26:56;11.88;;;2.88;;
59418;SDS011;45224;50.904;6.038;2023-12-20T06:28:26;12.35;;;2.80;;
59418;SDS011;45224;50.904;6.038;2023-12-20T06:29:56;12.13;;;2.47;;
59418;SDS011;45224;50.904;6.038;2023-12-20T06:31:27;13.25;;;2.45;;
59418;SDS011;45224;50.904;6.038;2023-12-20T06:32:57;11.65;;;2.38;;
59418;SDS011;45224;50.904;6.038;2023-12-20T06:34:28;11.43;;;2.40;;
59418;SDS011;45224;50.904;6.038;2023-12-20T06:35:59;7.15;;;1.90;;
59418;SDS011;45224;50.904;6.038;2023-12-20T06:37:29;12.35;;;2.22;;
59418;SDS011;45224;50.904;6.038;2023-12-20T06:39:00;9.02;;;2.40;;
59418;SDS011;45224;50.904;6.038;2023-12-20T06:40:30;12.15;;;2.45;;
59418;SDS011;45224;50.904;6.038;2023-12-20T06:42:01;7.15;;;2.92;;
59418;SDS011;45224;50.904;6.038;2023-12-20T06:43:31;9.52;;;2.22;;
59418;SDS011;45224;50.904;6.038;2023-12-20T06:45:03;13.10;;;2.03;;
59418;SDS011;45224;50.904;6.038;2023-12-20T06:46:34;10.10;;;2.70;;
59418;SDS011;45224;50.904;6.038;2023-12-20T06:48:05;9.13;;;2.30;;
59418;SDS011;45224;50.904;6.038;2023-12-20T06:49:35;13.52;;;2.25;;
59418;SDS011;45224;50.904;6.038;2023-12-20T06:51:06;7.40;;;1.90;;
59418;SDS011;45224;50.904;6.038;2023-12-20T06:52:36;11.98;;;2.10;;
59418;SDS011;45224;50.904;6.038;2023-12-20T06:54:07;9.75;;;2.22;;
59418;SDS011;45224;50.904;6.038;2023-12-20T06:55:38;10.82;;;2.28;;
59418;SDS011;45224;50.904;6.038;2023-12-20T06:57:08;13.32;;;2.38;;
59418;SDS011;45224;50.904;6.038;2023-12-20T06:58:39;10.20;;;2.40;;
59418;SDS011;45224;50.904;6.038;2023-12-20T07:00:11;12.52;;;2.97;;
59418;SDS011;45224;50.904;6.038;2023-12-20T07:01:42;11.70;;;2.95;;
59418;SDS011;45224;50.904;6.038;2023-12-20T07:03:12;10.73;;;2.60;;
59418;SDS011;45224;50.904;6.038;2023-12-20T07:04:42;10.13;;;2.40;;
59418;SDS011;45224;50.904;6.038;2023-12-20T07:06:13;6.82;;;2.40;;
59418;SDS011;45224;50.904;6.038;2023-12-20T07:09:17;8.75;;;2.83;;
59418;SDS011;45224;50.904;6.038;2023-12-20T07:10:47;12.23;;;2.60;;
59418;SDS011;45224;50.904;6.038;2023-12-20T07:12:18;10.23;;;2.50;;
59418;SDS011;45224;50.904;6.038;2023-12-20T07:13:49;5.53;;;2.08;;
59418;SDS011;45224;50.904;6.038;2023-12-20T07:15:20;14.82;;;2.90;;
59418;SDS011;45224;50.904;6.038;2023-12-20T07:16:51;9.65;;;3.00;;
59418;SDS011;45224;50.904;6.038;2023-12-20T07:18:22;10.57;;;3.05;;
59418;SDS011;45224;50.904;6.038;2023-12-20T07:19:52;13.02;;;3.00;;
59418;SDS011;45224;50.904;6.038;2023-12-20T07:21:23;13.05;;;2.97;;
59418;SDS011;45224;50.904;6.038;2023-12-20T07:22:54;11.20;;;2.47;;
59418;SDS011;45224;50.904;6.038;2023-12-20T07:24:25;7.93;;;2.55;;
59418;SDS011;45224;50.904;6.038;2023-12-20T07:25:55;13.48;;;3.30;;
59418;SDS011;45224;50.904;6.038;2023-12-20T07:27:26;10.93;;;3.17;;
59418;SDS011;45224;50.904;6.038;2023-12-20T07:28:56;8.82;;;2.78;;
59418;SDS011;45224;50.904;6.038;2023-12-20T07:30:28;9.30;;;2.95;;
59418;SDS011;45224;50.904;6.038;2023-12-20T07:31:59;9.40;;;2.92;;
59418;SDS011;45224;50.904;6.038;2023-12-20T07:33:29;12.05;;;3.40;;
59418;SDS011;45224;50.904;6.038;2023-12-20T07:35:00;8.73;;;2.78;;
59418;SDS011;45224;50.904;6.038;2023-12-20T07:36:33;19.88;;;3.58;;
59418;SDS011;45224;50.904;6.038;2023-12-20T07:38:03;8.73;;;2.90;;
59418;SDS011;45224;50.904;6.038;2023-12-20T07:39:34;12.90;;;2.75;;
59418;SDS011;45224;50.904;6.038;2023-12-20T07:41:04;9.45;;;3.10;;
59418;SDS011;45224;50.904;6.038;2023-12-20T07:42:35;13.35;;;2.85;;
59418;SDS011;45224;50.904;6.038;2023-12-20T07:44:06;12.75;;;2.90;;
59418;SDS011;45224;50.904;6.038;2023-12-20T07:45:37;8.88;;;2.75;;
59418;SDS011;45224;50.904;6.038;2023-12-20T07:47:08;6.55;;;2.22;;
59418;SDS011;45224;50.904;6.038;2023-12-20T07:48:38;9.50;;;2.50;;
59418;SDS011;45224;50.904;6.038;2023-12-20T07:50:09;13.80;;;2.70;;
59418;SDS011;45224;50.904;6.038;2023-12-20T07:51:40;9.65;;;2.88;;
59418;SDS011;45224;50.904;6.038;2023-12-20T07:53:10;9.45;;;2.20;;
59418;SDS011;45224;50.904;6.038;2023-12-20T07:54:41;9.25;;;2.72;;
59418;SDS011;45224;50.904;6.038;2023-12-20T07:56:14;7.72;;;2.13;;
59418;SDS011;45224;50.904;6.038;2023-12-20T07:57:49;12.52;;;2.83;;
59418;SDS011;45224;50.904;6.038;2023-12-20T07:59:19;9.15;;;2.60;;
59418;SDS011;45224;50.904;6.038;2023-12-20T08:00:49;9.02;;;2.75;;
59418;SDS011;45224;50.904;6.038;2023-12-20T08:02:20;8.70;;;2.42;;
59418;SDS011;45224;50.904;6.038;2023-12-20T08:03:50;10.00;;;2.38;;
59418;SDS011;45224;50.904;6.038;2023-12-20T08:05:21;9.07;;;2.65;;
59418;SDS011;45224;50.904;6.038;2023-12-20T08:06:51;8.27;;;2.10;;
59418;SDS011;45224;50.904;6.038;2023-12-20T08:08:22;9.23;;;2.47;;
59418;SDS011;45224;50.904;6.038;2023-12-20T08:09:52;8.18;;;2.53;;
59418;SDS011;45224;50.904;6.038;2023-12-20T08:11:25;8.95;;;2.28;;
59418;SDS011;45224;50.904;6.038;2023-12-20T08:12:55;10.00;;;2.50;;
59418;SDS011;45224;50.904;6.038;2023-12-20T08:14:25;14.48;;;2.97;;
59418;SDS011;45224;50.904;6.038;2023-12-20T08:15:56;8.73;;;2.35;;
59418;SDS011;45224;50.904;6.038;2023-12-20T08:17:27;14.02;;;3.10;;
59418;SDS011;45224;50.904;6.038;2023-12-20T08:18:57;8.55;;;2.13;;
59418;SDS011;45224;50.904;6.038;2023-12-20T08:20:27;11.35;;;2.70;;
59418;SDS011;45224;50.904;6.038;2023-12-20T08:21:58;14.32;;;2.83;;
59418;SDS011;45224;50.904;6.038;2023-12-20T08:23:28;10.40;;;2.72;;
59418;SDS011;45224;50.904;6.038;2023-12-20T08:24:59;8.23;;;2.40;;
59418;SDS011;45224;50.904;6.038;2023-12-20T08:26:29;8.50;;;2.38;;
59418;SDS011;45224;50.904;6.038;2023-12-20T08:28:02;9.18;;;2.30;;
59418;SDS011;45224;50.904;6.038;2023-12-20T08:29:33;9.18;;;1.85;;
59418;SDS011;45224;50.904;6.038;2023-12-20T08:31:03;10.10;;;2.50;;
59418;SDS011;45224;50.904;6.038;2023-12-20T08:32:34;13.90;;;2.42;;
59418;SDS011;45224;50.904;6.038;2023-12-20T08:34:05;7.38;;;2.00;;
59418;SDS011;45224;50.904;6.038;2023-12-20T08:35:35;13.40;;;2.25;;
59418;SDS011;45224;50.904;6.038;2023-12-20T08:37:06;13.48;;;2.50;;
59418;SDS011;45224;50.904;6.038;2023-12-20T08:38:36;11.18;;;2.38;;
59418;SDS011;45224;50.904;6.038;2023-12-20T08:40:07;10.65;;;2.55;;
59418;SDS011;45224;50.904;6.038;2023-12-20T08:41:37;8.68;;;2.45;;
59418;SDS011;45224;50.904;6.038;2023-12-20T08:43:08;7.40;;;2.25;;
59418;SDS011;45224;50.904;6.038;2023-12-20T08:44:39;8.05;;;2.67;;
59418;SDS011;45224;50.904;6.038;2023-12-20T08:46:09;11.02;;;2.60;;
59418;SDS011;45224;50.904;6.038;2023-12-20T08:47:39;12.50;;;3.17;;
59418;SDS011;45224;50.904;6.038;2023-12-20T08:49:11;10.70;;;2.97;;
59418;SDS011;45224;50.904;6.038;2023-12-20T08:50:41;9.52;;;2.38;;
59418;SDS011;45224;50.904;6.038;2023-12-20T08:52:12;8.52;;;2.90;;
59418;SDS011;45224;50.904;6.038;2023-12-20T08:53:43;10.35;;;2.85;;
59418;SDS011;45224;50.904;6.038;2023-12-20T08:55:15;11.93;;;2.78;;
59418;SDS011;45224;50.904;6.038;2023-12-20T08:56:46;9.63;;;2.20;;
59418;SDS011;45224;50.904;6.038;2023-12-20T08:58:17;7.05;;;1.88;;
59418;SDS011;45224;50.904;6.038;2023-12-20T08:59:48;13.00;;;2.80;;
59418;SDS011;45224;50.904;6.038;2023-12-20T09:01:18;9.40;;;2.15;;
59418;SDS011;45224;50.904;6.038;2023-12-20T09:02:49;8.57;;;2.05;;
59418;SDS011;45224;50.904;6.038;2023-12-20T09:04:19;11.80;;;2.40;;
59418;SDS011;45224;50.904;6.038;2023-12-20T09:05:50;9.93;;;2.38;;
59418;SDS011;45224;50.904;6.038;2023-12-20T09:07:24;9.10;;;2.42;;